createdAt,value
2023-03-15T00:01:19.295Z,8.61
2023-03-15T00:04:22.025Z,8.56
2023-03-15T00:07:26.064Z,8.55
2023-03-15T00:10:29.701Z,8.51
2023-03-15T00:13:32.594Z,8.49
2023-03-15T00:16:35.188Z,8.49
2023-03-15T00:19:37.731Z,8.45
2023-03-15T00:22:40.587Z,8.51
2023-03-15T00:25:47.636Z,8.39
2023-03-15T00:28:50.444Z,8.51
2023-03-15T00:31:53.082Z,8.44
2023-03-15T00:34:57.753Z,8.44
2023-03-15T00:38:00.929Z,8.38
2023-03-15T00:41:12.723Z,8.44
2023-03-15T00:44:16.084Z,8.47
2023-03-15T00:47:18.659Z,8.57
2023-03-15T00:50:22.911Z,8.44
2023-03-15T00:53:25.444Z,8.58
2023-03-15T00:56:30.229Z,8.43
2023-03-15T00:59:35.283Z,8.44
2023-03-15T01:02:37.965Z,8.46
2023-03-15T01:05:40.966Z,8.44
2023-03-15T01:08:43.892Z,8.44
2023-03-15T01:11:46.418Z,8.39
2023-03-15T01:14:49.033Z,8.39
2023-03-15T01:17:51.708Z,8.31
2023-03-15T01:20:54.432Z,8.20
2023-03-15T01:23:57.010Z,8.09
2023-03-15T01:26:59.531Z,8.06
2023-03-15T01:30:02.395Z,8.22
2023-03-15T01:33:05.729Z,8.13
2023-03-15T01:36:08.510Z,7.97
2023-03-15T01:39:11.958Z,8.02
2023-03-15T01:42:17.831Z,8.06
2023-03-15T01:45:54.334Z,7.98
2023-03-15T01:49:07.685Z,7.85
2023-03-15T01:52:21.447Z,7.75
2023-03-15T01:55:32.671Z,7.69
2023-03-15T01:58:42.980Z,7.74
2023-03-15T02:01:46.320Z,7.67
2023-03-15T02:04:54.445Z,7.74
2023-03-15T02:07:57.581Z,7.71
2023-03-15T02:11:04.644Z,7.68
2023-03-15T02:14:08.532Z,7.73
2023-03-15T02:17:13.932Z,7.78
2023-03-15T02:20:19.607Z,7.78
2023-03-15T02:23:23.539Z,7.73
2023-03-15T02:26:40.044Z,7.75
2023-03-15T02:29:42.640Z,7.74
2023-03-15T02:32:45.389Z,7.78
2023-03-15T02:35:48.448Z,7.74
2023-03-15T02:38:53.509Z,7.72
2023-03-15T02:41:58.400Z,7.59
2023-03-15T02:45:04.287Z,7.76
2023-03-15T02:48:07.800Z,7.66
2023-03-15T02:51:19.719Z,7.75
2023-03-15T02:54:22.262Z,7.72
2023-03-15T02:57:24.866Z,7.67
2023-03-15T03:00:31.140Z,7.68
2023-03-15T03:03:33.686Z,7.69
2023-03-15T03:06:36.839Z,7.67
2023-03-15T03:09:40.739Z,7.62
2023-03-15T03:12:44.843Z,7.58
2023-03-15T03:15:50.302Z,7.63
2023-03-15T03:18:53.049Z,7.58
2023-03-15T03:21:55.905Z,7.59
2023-03-15T03:24:58.571Z,7.58
2023-03-15T03:28:04.110Z,7.57
2023-03-15T03:31:07.379Z,7.56
2023-03-15T03:34:12.320Z,7.58
2023-03-15T03:37:20.983Z,7.49
2023-03-15T03:40:43.478Z,7.51
2023-03-15T03:43:46.398Z,7.52
2023-03-15T03:46:49.311Z,7.56
2023-03-15T03:49:52.080Z,7.48
2023-03-15T03:52:54.916Z,7.43
2023-03-15T03:56:05.521Z,7.43
2023-03-15T03:59:08.305Z,7.22
2023-03-15T04:02:24.657Z,7.34
2023-03-15T04:05:35.099Z,7.25
2023-03-15T04:08:37.923Z,7.11
2023-03-15T04:11:45.731Z,7.14
2023-03-15T04:14:48.620Z,7.12
2023-03-15T04:17:56.121Z,6.95
2023-03-15T04:21:00.702Z,7.01
2023-03-15T04:24:04.469Z,6.94
2023-03-15T04:27:15.686Z,6.89
2023-03-15T04:30:44.172Z,6.82
2023-03-15T04:34:06.432Z,6.71
2023-03-15T04:37:32.427Z,6.68
2023-03-15T04:40:50.538Z,6.55
2023-03-15T04:44:16.416Z,6.45
2023-03-15T04:47:37.607Z,6.25
2023-03-15T04:51:00.841Z,6.25
2023-03-15T04:54:22.244Z,6.24
2023-03-15T04:57:43.645Z,6.17
2023-03-15T05:01:05.278Z,6.04
2023-03-15T05:04:28.171Z,5.98
2023-03-15T05:07:45.575Z,5.95
2023-03-15T05:11:10.022Z,5.89
2023-03-15T05:14:48.081Z,5.90
2023-03-15T05:18:10.997Z,5.86
2023-03-15T05:21:24.458Z,5.80
2023-03-15T05:24:40.780Z,5.81
2023-03-15T05:27:46.807Z,5.77
2023-03-15T05:31:07.878Z,5.74
2023-03-15T05:34:32.390Z,5.76
2023-03-15T05:38:01.460Z,5.78
2023-03-15T05:41:22.797Z,5.75
2023-03-15T05:44:49.295Z,5.73
2023-03-15T05:48:10.884Z,5.73
2023-03-15T05:51:33.762Z,5.74
2023-03-15T05:54:42.654Z,5.75
2023-03-15T05:57:57.187Z,5.69
2023-03-15T06:01:20.154Z,5.74
2023-03-15T06:04:46.014Z,5.68
2023-03-15T06:07:52.792Z,5.70
2023-03-15T06:10:56.730Z,5.75
2023-03-15T06:13:59.482Z,5.73
2023-03-15T06:17:28.193Z,5.67
2023-03-15T06:20:32.057Z,5.60
2023-03-15T06:23:40.777Z,5.60
2023-03-15T06:26:43.400Z,5.56
2023-03-15T06:29:46.221Z,5.63
2023-03-15T06:32:48.832Z,5.67
2023-03-15T06:35:51.517Z,5.63
2023-03-15T06:38:54.677Z,5.66
2023-03-15T06:41:58.650Z,5.68
2023-03-15T06:45:04.000Z,5.75
2023-03-15T06:48:06.985Z,5.88
2023-03-15T06:51:09.720Z,5.85
2023-03-15T06:54:12.252Z,5.90
2023-03-15T06:57:15.137Z,5.97
2023-03-15T07:00:18.170Z,5.81
2023-03-15T07:03:22.479Z,6.13
2023-03-15T07:06:25.484Z,6.18
2023-03-15T07:09:28.019Z,6.13
2023-03-15T07:12:30.677Z,6.20
2023-03-15T07:15:33.473Z,6.11
2023-03-15T07:18:36.108Z,5.95
2023-03-15T07:21:38.704Z,5.99
2023-03-15T07:24:41.314Z,6.06
2023-03-15T07:27:43.960Z,6.11
2023-03-15T07:31:16.108Z,6.08
2023-03-15T07:34:18.840Z,6.11
2023-03-15T07:37:21.348Z,6.37
2023-03-15T07:40:25.098Z,6.44
2023-03-15T07:43:27.721Z,6.53
2023-03-15T07:46:41.789Z,6.46
2023-03-15T07:49:44.395Z,6.38
2023-03-15T07:52:46.921Z,6.47
2023-03-15T07:55:50.059Z,6.37
2023-03-15T07:58:52.721Z,6.42
2023-03-15T08:01:55.388Z,6.36
2023-03-15T08:04:58.886Z,6.26
2023-03-15T08:08:01.417Z,6.32
2023-03-15T08:11:05.293Z,6.25
2023-03-15T08:14:07.922Z,6.09
2023-03-15T08:17:13.256Z,6.29
2023-03-15T08:20:17.939Z,6.20
2023-03-15T08:23:22.009Z,5.95
2023-03-15T08:26:25.923Z,6.06
2023-03-15T08:29:29.106Z,6.08
2023-03-15T08:32:31.983Z,6.05
2023-03-15T08:35:34.782Z,6.14
2023-03-15T08:38:37.881Z,6.34
2023-03-15T08:41:41.341Z,6.22
2023-03-15T08:44:43.964Z,6.28
2023-03-15T08:47:46.856Z,6.35
2023-03-15T08:50:49.523Z,6.37
2023-03-15T08:53:53.162Z,6.24
2023-03-15T08:56:55.710Z,6.37
2023-03-15T08:59:58.975Z,6.36
2023-03-15T09:03:01.531Z,6.50
2023-03-15T09:06:04.124Z,6.14
2023-03-15T09:09:06.792Z,6.36
2023-03-15T09:12:09.695Z,6.37
2023-03-15T09:15:12.597Z,6.52
2023-03-15T09:18:15.203Z,6.54
2023-03-15T09:21:17.892Z,6.66
2023-03-15T09:24:20.540Z,6.74
2023-03-15T09:27:23.125Z,6.82
2023-03-15T09:30:25.744Z,6.76
2023-03-15T09:33:28.383Z,6.84
2023-03-15T09:36:31.560Z,6.70
2023-03-15T09:39:34.147Z,6.70
2023-03-15T09:43:04.264Z,6.73
2023-03-15T09:46:24.356Z,6.76
2023-03-15T09:50:02.232Z,6.58
2023-03-15T09:53:28.363Z,6.63
2023-03-15T09:56:40.469Z,6.79
2023-03-15T09:59:46.892Z,6.12
2023-03-15T10:03:01.623Z,6.38
2023-03-15T10:06:17.198Z,6.61
2023-03-15T10:09:23.193Z,6.56
2023-03-15T10:12:31.245Z,6.28
2023-03-15T10:16:14.460Z,6.42
2023-03-15T10:19:37.314Z,6.35
2023-03-15T10:23:00.458Z,6.30
2023-03-15T10:26:05.292Z,6.32
2023-03-15T10:29:14.947Z,6.34
2023-03-15T10:32:19.119Z,6.33
2023-03-15T10:35:21.904Z,6.29
2023-03-15T10:38:25.990Z,6.58
2023-03-15T10:41:39.198Z,6.51
2023-03-15T10:44:41.778Z,6.20
2023-03-15T10:47:50.384Z,6.16
2023-03-15T10:50:54.745Z,6.44
2023-03-15T10:54:12.468Z,6.32
2023-03-15T10:57:17.383Z,6.39
2023-03-15T11:00:24.117Z,6.39
2023-03-15T11:03:27.374Z,6.46
2023-03-15T11:06:37.785Z,6.59
2023-03-15T11:09:42.681Z,6.58
2023-03-15T11:12:45.377Z,6.70
2023-03-15T11:16:13.531Z,6.82
2023-03-15T11:19:18.475Z,7.04
2023-03-15T11:22:21.171Z,7.06
2023-03-15T11:25:28.188Z,6.99
2023-03-15T11:28:33.056Z,7.26
2023-03-15T11:31:35.939Z,7.12
2023-03-15T11:34:46.171Z,7.27
2023-03-15T11:38:06.204Z,7.32
2023-03-15T11:41:24.412Z,7.43
2023-03-15T11:44:41.979Z,7.33
2023-03-15T11:47:54.333Z,7.08
2023-03-15T11:50:58.507Z,7.44
2023-03-15T11:54:04.394Z,7.30
2023-03-15T11:57:28.131Z,7.27
2023-03-15T12:00:36.603Z,7.46
2023-03-15T12:03:44.315Z,7.37
2023-03-15T12:06:47.137Z,7.46
2023-03-15T12:09:52.424Z,7.46
2023-03-15T12:13:05.677Z,7.51
2023-03-15T12:16:10.875Z,7.46
2023-03-15T12:19:19.171Z,7.73
2023-03-15T12:22:21.903Z,7.61
2023-03-15T12:25:54.790Z,7.59
2023-03-15T12:29:00.972Z,7.55
2023-03-15T12:32:03.477Z,7.46
2023-03-15T12:35:16.640Z,7.59
2023-03-15T12:38:22.992Z,7.43
2023-03-15T12:41:46.853Z,7.39
2023-03-15T12:44:49.541Z,7.58
2023-03-15T12:47:52.093Z,7.45
2023-03-15T12:50:57.400Z,7.43
2023-03-15T12:54:00.137Z,7.48
2023-03-15T12:57:05.084Z,7.56
2023-03-15T13:00:27.615Z,7.53
2023-03-15T13:03:30.209Z,7.51
2023-03-15T13:06:58.217Z,7.23
2023-03-15T13:10:05.014Z,7.31
2023-03-15T13:13:44.951Z,7.26
2023-03-15T13:17:40.084Z,7.20
2023-03-15T13:21:16.757Z,7.21
2023-03-15T13:24:37.304Z,7.13
2023-03-15T13:28:01.907Z,6.93
2023-03-15T13:31:19.361Z,7.04
2023-03-15T13:34:24.285Z,7.02
2023-03-15T13:37:29.229Z,7.07
2023-03-15T13:40:31.886Z,7.03
2023-03-15T13:43:37.677Z,7.10
2023-03-15T13:46:40.469Z,7.04
2023-03-15T13:49:43.062Z,7.13
2023-03-15T13:52:45.981Z,7.06
2023-03-15T13:55:51.881Z,7.00
2023-03-15T13:58:54.759Z,7.04
2023-03-15T14:01:57.496Z,7.04
2023-03-15T14:05:05.849Z,7.06
2023-03-15T14:08:27.654Z,7.08
2023-03-15T14:11:33.053Z,7.03
2023-03-15T14:14:46.749Z,7.03
2023-03-15T14:18:24.103Z,7.06
2023-03-15T14:21:32.440Z,7.00
2023-03-15T14:24:40.850Z,6.97
2023-03-15T14:27:44.138Z,6.96
2023-03-15T14:30:56.557Z,6.94
2023-03-15T14:34:23.831Z,7.01
2023-03-15T14:37:31.240Z,7.02
2023-03-15T14:40:36.365Z,7.04
2023-03-15T14:43:39.021Z,7.11
2023-03-15T14:46:41.708Z,7.11
2023-03-15T14:49:44.337Z,7.17
2023-03-15T14:52:47.697Z,7.13
2023-03-15T14:55:50.946Z,7.21
2023-03-15T14:58:56.571Z,7.16
2023-03-15T15:02:01.229Z,7.18
2023-03-15T15:05:15.859Z,7.13
2023-03-15T15:08:19.961Z,7.01
2023-03-15T15:11:22.573Z,7.06
2023-03-15T15:14:25.233Z,7.05
2023-03-15T15:17:27.835Z,7.01
2023-03-15T15:20:30.561Z,7.03
2023-03-15T15:23:39.592Z,6.95
2023-03-15T15:26:50.262Z,6.96
2023-03-15T15:29:52.863Z,7.00
2023-03-15T15:32:57.187Z,6.92
2023-03-15T15:35:59.922Z,6.90
2023-03-15T15:39:06.479Z,6.99
2023-03-15T15:42:11.114Z,7.02
2023-03-15T15:45:16.736Z,7.01
2023-03-15T15:48:19.394Z,6.97
2023-03-15T15:51:34.443Z,7.04
2023-03-15T15:54:37.112Z,7.00
2023-03-15T15:57:40.053Z,6.97
2023-03-15T16:00:42.804Z,6.82
2023-03-15T16:03:45.542Z,6.90
2023-03-15T16:06:54.623Z,6.91
2023-03-15T16:09:58.408Z,6.88
2023-03-15T16:13:02.491Z,6.87
2023-03-15T16:16:05.278Z,6.74
2023-03-15T16:19:08.910Z,6.78
2023-03-15T16:22:11.633Z,6.63
2023-03-15T16:25:25.564Z,6.58
2023-03-15T16:28:28.418Z,6.55
2023-03-15T16:31:35.318Z,6.85
2023-03-15T16:34:38.141Z,7.03
2023-03-15T16:37:41.734Z,7.02
2023-03-15T16:40:45.731Z,6.94
2023-03-15T16:43:49.484Z,6.67
2023-03-15T16:46:52.656Z,6.53
2023-03-15T16:49:55.368Z,6.54
2023-03-15T16:52:59.839Z,6.41
2023-03-15T16:56:03.264Z,6.40
2023-03-15T16:59:06.113Z,6.35
2023-03-15T17:02:25.932Z,6.26
2023-03-15T17:05:28.699Z,6.19
2023-03-15T17:08:31.724Z,6.25
2023-03-15T17:11:34.291Z,6.16
2023-03-15T17:14:38.746Z,6.04
2023-03-15T17:17:41.398Z,5.94
2023-03-15T17:20:45.158Z,5.89
2023-03-15T17:23:49.570Z,5.82
2023-03-15T17:26:52.565Z,5.70
2023-03-15T17:29:55.216Z,5.61
2023-03-15T17:33:00.144Z,5.63
2023-03-15T17:36:07.078Z,5.67
2023-03-15T17:39:14.379Z,5.45
2023-03-15T17:42:17.670Z,5.45
2023-03-15T17:45:25.633Z,5.47
2023-03-15T17:48:28.375Z,5.37
2023-03-15T17:51:33.220Z,5.37
2023-03-15T17:54:35.967Z,5.45
2023-03-15T17:57:42.999Z,5.38
2023-03-15T18:00:50.169Z,5.36
2023-03-15T18:03:53.667Z,5.22
2023-03-15T18:06:56.583Z,5.22
2023-03-15T18:10:00.076Z,5.22
2023-03-15T18:13:04.097Z,5.24
2023-03-15T18:16:07.076Z,5.14
2023-03-15T18:19:09.996Z,5.18
2023-03-15T18:22:16.645Z,5.07
2023-03-15T18:25:26.539Z,5.04
2023-03-15T18:28:29.388Z,5.01
2023-03-15T18:31:32.249Z,4.97
2023-03-15T18:34:35.202Z,4.93
2023-03-15T18:37:38.065Z,4.84
2023-03-15T18:40:42.258Z,4.88
2023-03-15T18:43:51.654Z,4.86
2023-03-15T18:46:54.260Z,4.81
2023-03-15T18:50:04.484Z,4.77
2023-03-15T18:53:12.958Z,4.76
2023-03-15T18:56:27.039Z,4.71
2023-03-15T18:59:29.654Z,4.60
2023-03-15T19:02:33.574Z,4.75
2023-03-15T19:05:38.153Z,4.70
2023-03-15T19:08:41.604Z,4.68
2023-03-15T19:11:44.430Z,4.61
2023-03-15T19:14:47.497Z,4.56
2023-03-15T19:17:52.296Z,4.59
2023-03-15T19:20:55.100Z,4.59
2023-03-15T19:23:58.354Z,4.55
2023-03-15T19:27:01.220Z,4.53
2023-03-15T19:30:06.732Z,4.33
2023-03-15T19:33:11.378Z,4.53
2023-03-15T19:36:14.207Z,4.47
2023-03-15T19:39:17.168Z,4.51
2023-03-15T19:42:20.260Z,4.46
2023-03-15T19:45:23.095Z,4.43
2023-03-15T19:48:25.844Z,4.48
2023-03-15T19:51:29.037Z,4.44
2023-03-15T19:54:34.272Z,4.42
2023-03-15T19:57:37.095Z,4.37
2023-03-15T20:00:39.983Z,4.32
2023-03-15T20:03:42.973Z,4.16
2023-03-15T20:06:46.015Z,4.24
2023-03-15T20:09:48.949Z,4.25
2023-03-15T20:12:51.799Z,4.16
2023-03-15T20:15:54.772Z,3.84
2023-03-15T20:18:59.118Z,3.85
2023-03-15T20:22:01.897Z,3.81
2023-03-15T20:25:05.161Z,3.84
2023-03-15T20:28:08.209Z,3.79
2023-03-15T20:31:17.119Z,3.80
2023-03-15T20:34:20.698Z,3.79
2023-03-15T20:37:25.256Z,3.84
2023-03-15T20:40:28.111Z,3.76
2023-03-15T20:43:32.727Z,3.67
2023-03-15T20:46:36.081Z,3.65
2023-03-15T20:49:38.950Z,3.63
2023-03-15T20:52:42.942Z,3.70
2023-03-15T20:55:45.942Z,3.67
2023-03-15T20:58:48.488Z,3.79
2023-03-15T21:01:52.778Z,3.74
2023-03-15T21:04:55.606Z,3.65
2023-03-15T21:07:58.468Z,3.57
2023-03-15T21:11:02.628Z,3.49
2023-03-15T21:14:05.525Z,3.38
2023-03-15T21:17:08.356Z,3.39
2023-03-15T21:20:12.690Z,3.42
2023-03-15T21:23:17.072Z,3.45
2023-03-15T21:26:19.602Z,3.42
2023-03-15T21:29:22.542Z,3.47
2023-03-15T21:32:26.431Z,3.49
2023-03-15T21:35:29.365Z,3.52
2023-03-15T21:38:34.241Z,3.53
2023-03-15T21:41:36.785Z,3.46
2023-03-15T21:44:39.704Z,3.50
2023-03-15T21:47:42.454Z,3.57
2023-03-15T21:50:45.788Z,3.41
2023-03-15T21:53:50.416Z,3.44
2023-03-15T21:56:53.294Z,3.56
2023-03-15T21:59:56.020Z,3.60
2023-03-15T22:02:58.844Z,3.57
2023-03-15T22:06:01.370Z,3.54
2023-03-15T22:09:04.177Z,3.58
2023-03-15T22:12:07.549Z,3.51
2023-03-15T22:15:10.724Z,3.50
2023-03-15T22:18:13.460Z,3.56
2023-03-15T22:21:16.038Z,3.38
2023-03-15T22:24:18.621Z,3.42
2023-03-15T22:27:21.326Z,3.37
2023-03-15T22:30:24.692Z,3.36
2023-03-15T22:33:27.870Z,3.33
2023-03-15T22:36:33.882Z,3.01
2023-03-15T22:39:36.615Z,3.07
2023-03-15T22:42:39.213Z,2.91
2023-03-15T22:45:41.778Z,2.66
2023-03-15T22:48:44.864Z,2.55
2023-03-15T22:51:47.496Z,2.37
2023-03-15T22:54:50.011Z,2.39
2023-03-15T22:57:54.086Z,2.32
2023-03-15T23:00:56.686Z,2.35
2023-03-15T23:03:59.459Z,2.26
2023-03-15T23:07:02.123Z,2.22
2023-03-15T23:10:06.516Z,2.26
2023-03-15T23:13:09.102Z,2.36
2023-03-15T23:16:12.016Z,2.03
2023-03-15T23:19:15.263Z,2.22
2023-03-15T23:22:17.866Z,2.03
2023-03-15T23:25:22.737Z,2.01
2023-03-15T23:28:26.092Z,2.14
2023-03-15T23:31:28.764Z,2.06
2023-03-15T23:34:31.414Z,1.97
2023-03-15T23:37:34.494Z,1.89
2023-03-15T23:40:37.485Z,1.83
2023-03-15T23:43:40.065Z,1.73
2023-03-15T23:46:42.683Z,1.78
2023-03-15T23:49:45.802Z,1.78
2023-03-15T23:52:48.652Z,1.66
2023-03-15T23:55:52.164Z,1.57
2023-03-15T23:58:54.967Z,1.53
